Terminal Aerodrome Forecast
Issued by NWS Wilmington, OH

Current Version | Previous Version | Text Only | Print | Product List | Glossary Off
Versions: 1 2 3 4 5 6 7 8 9 10 11 12 13 14 15 16

000
FTUS41 KILN 202300
TAFDAY
TAF
KDAY 202335Z 2100/2124 VRB03KT P6SM SCT045
     FM210600 VRB03KT 4SM BR SCT015
      TEMPO 2108/2111 2SM BR
     FM211300 09004KT P6SM SCT025
     FM211600 08006KT P6SM SCT035=

USA.gov is the U.S. government's official web portal to all federal, state and local government web resources and services.